sensor_id;sensor_type;location;lat;lon;timestamp;P1;durP1;ratioP1;P2;durP2;ratioP2
52786;SDS011;38661;53.152;5.846;2023-01-06T00:00:17;38.53;;;9.38;;
52786;SDS011;38661;53.152;5.846;2023-01-06T00:02:43;26.75;;;7.88;;
52786;SDS011;38661;53.152;5.846;2023-01-06T00:05:11;40.80;;;9.05;;
52786;SDS011;38661;53.152;5.846;2023-01-06T00:07:37;29.42;;;8.40;;
52786;SDS011;38661;53.152;5.846;2023-01-06T00:10:03;38.28;;;8.65;;
52786;SDS011;38661;53.152;5.846;2023-01-06T00:12:30;35.92;;;8.50;;
52786;SDS011;38661;53.152;5.846;2023-01-06T00:14:55;32.45;;;8.20;;
52786;SDS011;38661;53.152;5.846;2023-01-06T00:17:22;32.72;;;8.25;;
52786;SDS011;38661;53.152;5.846;2023-01-06T00:19:48;33.92;;;7.22;;
52786;SDS011;38661;53.152;5.846;2023-01-06T00:22:14;20.45;;;7.32;;
52786;SDS011;38661;53.152;5.846;2023-01-06T00:24:40;25.92;;;5.97;;
52786;SDS011;38661;53.152;5.846;2023-01-06T00:27:05;19.35;;;5.63;;
52786;SDS011;38661;53.152;5.846;2023-01-06T00:29:31;14.77;;;4.00;;
52786;SDS011;38661;53.152;5.846;2023-01-06T00:31:58;22.27;;;4.47;;
52786;SDS011;38661;53.152;5.846;2023-01-06T00:34:24;19.77;;;5.25;;
52786;SDS011;38661;53.152;5.846;2023-01-06T00:36:50;22.60;;;5.78;;
52786;SDS011;38661;53.152;5.846;2023-01-06T00:39:16;16.67;;;3.63;;
52786;SDS011;38661;53.152;5.846;2023-01-06T00:41:42;20.27;;;4.43;;
52786;SDS011;38661;53.152;5.846;2023-01-06T00:44:26;17.05;;;4.43;;
52786;SDS011;38661;53.152;5.846;2023-01-06T00:46:52;17.67;;;4.30;;
52786;SDS011;38661;53.152;5.846;2023-01-06T00:49:17;21.67;;;5.18;;
52786;SDS011;38661;53.152;5.846;2023-01-06T00:51:43;16.30;;;4.15;;
52786;SDS011;38661;53.152;5.846;2023-01-06T00:54:10;18.42;;;4.43;;
52786;SDS011;38661;53.152;5.846;2023-01-06T00:56:43;14.98;;;4.00;;
52786;SDS011;38661;53.152;5.846;2023-01-06T00:59:11;11.02;;;3.13;;
52786;SDS011;38661;53.152;5.846;2023-01-06T01:01:41;13.00;;;4.05;;
52786;SDS011;38661;53.152;5.846;2023-01-06T01:04:08;16.45;;;4.45;;
52786;SDS011;38661;53.152;5.846;2023-01-06T01:06:34;8.82;;;3.30;;
52786;SDS011;38661;53.152;5.846;2023-01-06T01:09:01;15.23;;;3.67;;
52786;SDS011;38661;53.152;5.846;2023-01-06T01:11:29;16.33;;;4.05;;
52786;SDS011;38661;53.152;5.846;2023-01-06T01:14:14;12.35;;;3.05;;
52786;SDS011;38661;53.152;5.846;2023-01-06T01:16:41;16.80;;;4.28;;
52786;SDS011;38661;53.152;5.846;2023-01-06T01:19:06;25.60;;;4.05;;
52786;SDS011;38661;53.152;5.846;2023-01-06T01:21:33;18.67;;;4.18;;
52786;SDS011;38661;53.152;5.846;2023-01-06T01:23:58;14.50;;;4.95;;
52786;SDS011;38661;53.152;5.846;2023-01-06T01:26:24;12.48;;;3.63;;
52786;SDS011;38661;53.152;5.846;2023-01-06T01:28:50;16.17;;;3.55;;
52786;SDS011;38661;53.152;5.846;2023-01-06T01:31:16;20.10;;;5.20;;
52786;SDS011;38661;53.152;5.846;2023-01-06T01:33:41;11.75;;;2.72;;
52786;SDS011;38661;53.152;5.846;2023-01-06T01:36:08;12.88;;;3.70;;
52786;SDS011;38661;53.152;5.846;2023-01-06T01:38:36;16.88;;;3.40;;
52786;SDS011;38661;53.152;5.846;2023-01-06T01:41:02;13.52;;;4.43;;
52786;SDS011;38661;53.152;5.846;2023-01-06T01:43:42;11.80;;;3.28;;
52786;SDS011;38661;53.152;5.846;2023-01-06T01:46:38;17.92;;;4.28;;
52786;SDS011;38661;53.152;5.846;2023-01-06T01:49:12;17.25;;;4.22;;
52786;SDS011;38661;53.152;5.846;2023-01-06T01:51:45;17.48;;;3.55;;
52786;SDS011;38661;53.152;5.846;2023-01-06T01:54:14;15.27;;;3.72;;
52786;SDS011;38661;53.152;5.846;2023-01-06T01:56:44;15.05;;;4.90;;
52786;SDS011;38661;53.152;5.846;2023-01-06T01:59:14;34.72;;;16.67;;
52786;SDS011;38661;53.152;5.846;2023-01-06T02:01:42;14.02;;;3.50;;
52786;SDS011;38661;53.152;5.846;2023-01-06T02:04:08;14.70;;;6.50;;
52786;SDS011;38661;53.152;5.846;2023-01-06T02:06:34;10.18;;;3.33;;
52786;SDS011;38661;53.152;5.846;2023-01-06T02:09:13;14.85;;;6.45;;
52786;SDS011;38661;53.152;5.846;2023-01-06T02:11:40;20.02;;;5.30;;
52786;SDS011;38661;53.152;5.846;2023-01-06T02:14:15;19.70;;;8.98;;
52786;SDS011;38661;53.152;5.846;2023-01-06T02:19:28;14.60;;;4.45;;
52786;SDS011;38661;53.152;5.846;2023-01-06T02:25:16;10.13;;;2.63;;
52786;SDS011;38661;53.152;5.846;2023-01-06T02:27:53;13.15;;;4.25;;
52786;SDS011;38661;53.152;5.846;2023-01-06T02:30:40;14.45;;;2.90;;
52786;SDS011;38661;53.152;5.846;2023-01-06T02:33:36;8.57;;;3.97;;
52786;SDS011;38661;53.152;5.846;2023-01-06T02:36:14;17.48;;;5.03;;
52786;SDS011;38661;53.152;5.846;2023-01-06T02:41:42;11.60;;;2.70;;
52786;SDS011;38661;53.152;5.846;2023-01-06T02:44:26;7.93;;;2.80;;
52786;SDS011;38661;53.152;5.846;2023-01-06T02:52:40;12.63;;;7.10;;
52786;SDS011;38661;53.152;5.846;2023-01-06T02:55:27;19.10;;;8.40;;
52786;SDS011;38661;53.152;5.846;2023-01-06T02:58:13;21.02;;;12.77;;
52786;SDS011;38661;53.152;5.846;2023-01-06T03:00:41;11.45;;;4.10;;
52786;SDS011;38661;53.152;5.846;2023-01-06T03:03:13;11.70;;;6.85;;
52786;SDS011;38661;53.152;5.846;2023-01-06T03:05:42;21.73;;;12.98;;
52786;SDS011;38661;53.152;5.846;2023-01-06T03:08:12;23.35;;;13.68;;
52786;SDS011;38661;53.152;5.846;2023-01-06T03:10:43;12.55;;;6.60;;
52786;SDS011;38661;53.152;5.846;2023-01-06T03:15:58;27.40;;;13.30;;
52786;SDS011;38661;53.152;5.846;2023-01-06T03:18:24;11.23;;;5.43;;
52786;SDS011;38661;53.152;5.846;2023-01-06T03:20:51;15.90;;;9.43;;
52786;SDS011;38661;53.152;5.846;2023-01-06T03:23:21;24.25;;;12.35;;
52786;SDS011;38661;53.152;5.846;2023-01-06T03:25:47;28.33;;;16.33;;
52786;SDS011;38661;53.152;5.846;2023-01-06T03:28:13;19.27;;;9.70;;
52786;SDS011;38661;53.152;5.846;2023-01-06T03:30:44;17.05;;;10.80;;
52786;SDS011;38661;53.152;5.846;2023-01-06T03:33:20;15.60;;;8.85;;
52786;SDS011;38661;53.152;5.846;2023-01-06T03:43:43;17.08;;;13.48;;
52786;SDS011;38661;53.152;5.846;2023-01-06T03:56:44;16.90;;;12.85;;
52786;SDS011;38661;53.152;5.846;2023-01-06T03:59:20;19.45;;;15.57;;
52786;SDS011;38661;53.152;5.846;2023-01-06T04:01:50;17.13;;;12.55;;
52786;SDS011;38661;53.152;5.846;2023-01-06T04:04:16;17.60;;;10.68;;
52786;SDS011;38661;53.152;5.846;2023-01-06T04:06:42;13.52;;;9.57;;
52786;SDS011;38661;53.152;5.846;2023-01-06T04:09:08;15.32;;;9.35;;
52786;SDS011;38661;53.152;5.846;2023-01-06T04:11:34;17.75;;;12.10;;
52786;SDS011;38661;53.152;5.846;2023-01-06T04:14:19;15.20;;;9.23;;
52786;SDS011;38661;53.152;5.846;2023-01-06T04:16:44;13.88;;;10.13;;
52786;SDS011;38661;53.152;5.846;2023-01-06T04:19:10;12.45;;;7.22;;
52786;SDS011;38661;53.152;5.846;2023-01-06T04:21:36;13.70;;;6.68;;
52786;SDS011;38661;53.152;5.846;2023-01-06T04:24:01;8.27;;;6.07;;
52786;SDS011;38661;53.152;5.846;2023-01-06T04:26:27;6.82;;;6.07;;
52786;SDS011;38661;53.152;5.846;2023-01-06T04:28:53;8.50;;;5.93;;
52786;SDS011;38661;53.152;5.846;2023-01-06T04:31:19;9.32;;;5.90;;
52786;SDS011;38661;53.152;5.846;2023-01-06T04:33:44;9.13;;;5.65;;
52786;SDS011;38661;53.152;5.846;2023-01-06T04:36:10;14.57;;;5.63;;
52786;SDS011;38661;53.152;5.846;2023-01-06T04:38:36;10.43;;;4.40;;
52786;SDS011;38661;53.152;5.846;2023-01-06T04:41:01;7.47;;;4.72;;
52786;SDS011;38661;53.152;5.846;2023-01-06T04:43:27;7.03;;;5.22;;
52786;SDS011;38661;53.152;5.846;2023-01-06T04:45:53;6.20;;;4.80;;
52786;SDS011;38661;53.152;5.846;2023-01-06T04:48:23;7.78;;;4.88;;
52786;SDS011;38661;53.152;5.846;2023-01-06T04:50:48;5.43;;;4.05;;
52786;SDS011;38661;53.152;5.846;2023-01-06T04:53:14;8.80;;;4.90;;
52786;SDS011;38661;53.152;5.846;2023-01-06T04:55:40;5.32;;;4.40;;
52786;SDS011;38661;53.152;5.846;2023-01-06T04:58:06;8.57;;;4.30;;
52786;SDS011;38661;53.152;5.846;2023-01-06T05:00:32;11.95;;;6.38;;
52786;SDS011;38661;53.152;5.846;2023-01-06T05:02:58;10.75;;;5.78;;
52786;SDS011;38661;53.152;5.846;2023-01-06T05:05:24;8.93;;;5.38;;
52786;SDS011;38661;53.152;5.846;2023-01-06T05:07:53;6.13;;;4.70;;
52786;SDS011;38661;53.152;5.846;2023-01-06T05:10:18;7.88;;;5.10;;
52786;SDS011;38661;53.152;5.846;2023-01-06T05:12:44;7.13;;;4.20;;
52786;SDS011;38661;53.152;5.846;2023-01-06T05:15:10;9.90;;;5.82;;
52786;SDS011;38661;53.152;5.846;2023-01-06T05:17:36;5.70;;;3.83;;
52786;SDS011;38661;53.152;5.846;2023-01-06T05:20:02;8.68;;;4.25;;
52786;SDS011;38661;53.152;5.846;2023-01-06T05:22:28;9.13;;;5.40;;
52786;SDS011;38661;53.152;5.846;2023-01-06T05:24:53;6.28;;;4.50;;
52786;SDS011;38661;53.152;5.846;2023-01-06T05:27:19;6.72;;;4.38;;
52786;SDS011;38661;53.152;5.846;2023-01-06T05:29:45;8.80;;;5.13;;
52786;SDS011;38661;53.152;5.846;2023-01-06T05:32:11;5.88;;;4.40;;
52786;SDS011;38661;53.152;5.846;2023-01-06T05:34:36;6.13;;;4.47;;
52786;SDS011;38661;53.152;5.846;2023-01-06T05:37:02;8.32;;;5.15;;
52786;SDS011;38661;53.152;5.846;2023-01-06T05:39:28;7.18;;;4.80;;
52786;SDS011;38661;53.152;5.846;2023-01-06T05:41:53;7.25;;;4.95;;
52786;SDS011;38661;53.152;5.846;2023-01-06T05:44:19;8.32;;;4.50;;
52786;SDS011;38661;53.152;5.846;2023-01-06T05:46:45;9.40;;;4.78;;
52786;SDS011;38661;53.152;5.846;2023-01-06T05:49:10;8.85;;;4.60;;
52786;SDS011;38661;53.152;5.846;2023-01-06T05:51:36;8.73;;;4.20;;
52786;SDS011;38661;53.152;5.846;2023-01-06T05:54:05;8.95;;;6.43;;
52786;SDS011;38661;53.152;5.846;2023-01-06T05:56:32;7.97;;;5.22;;
52786;SDS011;38661;53.152;5.846;2023-01-06T05:58:58;9.43;;;4.80;;
52786;SDS011;38661;53.152;5.846;2023-01-06T06:01:25;6.10;;;4.57;;
52786;SDS011;38661;53.152;5.846;2023-01-06T06:03:53;7.72;;;4.95;;
52786;SDS011;38661;53.152;5.846;2023-01-06T06:06:19;7.93;;;6.10;;
52786;SDS011;38661;53.152;5.846;2023-01-06T06:08:46;9.23;;;5.60;;
52786;SDS011;38661;53.152;5.846;2023-01-06T06:11:13;6.80;;;5.13;;
52786;SDS011;38661;53.152;5.846;2023-01-06T06:13:53;8.23;;;5.68;;
52786;SDS011;38661;53.152;5.846;2023-01-06T06:16:21;9.82;;;6.72;;
52786;SDS011;38661;53.152;5.846;2023-01-06T06:18:52;7.88;;;6.00;;
52786;SDS011;38661;53.152;5.846;2023-01-06T06:21:20;9.80;;;6.05;;
52786;SDS011;38661;53.152;5.846;2023-01-06T06:23:48;9.05;;;5.43;;
52786;SDS011;38661;53.152;5.846;2023-01-06T06:26:14;7.72;;;6.50;;
52786;SDS011;38661;53.152;5.846;2023-01-06T06:28:40;11.13;;;6.25;;
52786;SDS011;38661;53.152;5.846;2023-01-06T06:31:07;9.25;;;6.45;;
52786;SDS011;38661;53.152;5.846;2023-01-06T06:33:44;8.85;;;6.15;;
52786;SDS011;38661;53.152;5.846;2023-01-06T06:36:13;7.03;;;5.88;;
52786;SDS011;38661;53.152;5.846;2023-01-06T06:38:42;9.32;;;6.28;;
52786;SDS011;38661;53.152;5.846;2023-01-06T06:41:09;11.55;;;4.75;;
52786;SDS011;38661;53.152;5.846;2023-01-06T06:43:35;9.68;;;5.47;;
52786;SDS011;38661;53.152;5.846;2023-01-06T06:46:00;5.40;;;4.90;;
52786;SDS011;38661;53.152;5.846;2023-01-06T06:48:27;9.30;;;6.20;;
52786;SDS011;38661;53.152;5.846;2023-01-06T06:51:06;7.28;;;4.93;;
52786;SDS011;38661;53.152;5.846;2023-01-06T06:53:33;9.18;;;4.90;;
52786;SDS011;38661;53.152;5.846;2023-01-06T06:56:00;7.60;;;3.97;;
52786;SDS011;38661;53.152;5.846;2023-01-06T06:58:26;10.55;;;3.83;;
52786;SDS011;38661;53.152;5.846;2023-01-06T07:00:52;7.30;;;3.45;;
52786;SDS011;38661;53.152;5.846;2023-01-06T07:03:18;11.63;;;2.53;;
52786;SDS011;38661;53.152;5.846;2023-01-06T07:05:44;8.85;;;2.50;;
52786;SDS011;38661;53.152;5.846;2023-01-06T07:08:12;8.30;;;2.38;;
52786;SDS011;38661;53.152;5.846;2023-01-06T07:10:38;13.27;;;3.00;;
52786;SDS011;38661;53.152;5.846;2023-01-06T07:13:03;13.32;;;3.10;;
52786;SDS011;38661;53.152;5.846;2023-01-06T07:15:29;15.98;;;2.88;;
52786;SDS011;38661;53.152;5.846;2023-01-06T07:17:58;13.50;;;3.55;;
52786;SDS011;38661;53.152;5.846;2023-01-06T07:20:25;10.15;;;2.33;;
52786;SDS011;38661;53.152;5.846;2023-01-06T07:22:51;6.55;;;2.13;;
52786;SDS011;38661;53.152;5.846;2023-01-06T07:25:17;5.75;;;1.73;;
52786;SDS011;38661;53.152;5.846;2023-01-06T07:27:42;11.38;;;2.03;;
52786;SDS011;38661;53.152;5.846;2023-01-06T07:30:08;5.03;;;1.30;;
52786;SDS011;38661;53.152;5.846;2023-01-06T07:32:34;6.00;;;1.10;;
52786;SDS011;38661;53.152;5.846;2023-01-06T07:35:00;10.15;;;2.33;;
52786;SDS011;38661;53.152;5.846;2023-01-06T07:37:26;6.72;;;1.30;;
52786;SDS011;38661;53.152;5.846;2023-01-06T07:39:51;8.85;;;2.10;;
52786;SDS011;38661;53.152;5.846;2023-01-06T07:42:17;7.15;;;1.45;;
52786;SDS011;38661;53.152;5.846;2023-01-06T07:44:43;8.23;;;2.10;;
52786;SDS011;38661;53.152;5.846;2023-01-06T07:47:08;8.52;;;2.10;;
52786;SDS011;38661;53.152;5.846;2023-01-06T07:49:35;8.00;;;1.90;;
52786;SDS011;38661;53.152;5.846;2023-01-06T07:52:00;12.18;;;1.50;;
52786;SDS011;38661;53.152;5.846;2023-01-06T07:54:26;6.35;;;2.00;;
52786;SDS011;38661;53.152;5.846;2023-01-06T07:56:52;4.82;;;1.45;;
52786;SDS011;38661;53.152;5.846;2023-01-06T07:59:17;11.43;;;1.90;;
52786;SDS011;38661;53.152;5.846;2023-01-06T08:01:43;11.57;;;2.22;;
52786;SDS011;38661;53.152;5.846;2023-01-06T08:04:08;10.55;;;1.80;;
52786;SDS011;38661;53.152;5.846;2023-01-06T08:06:34;16.00;;;2.30;;
52786;SDS011;38661;53.152;5.846;2023-01-06T08:09:04;12.18;;;1.92;;
52786;SDS011;38661;53.152;5.846;2023-01-06T08:11:29;13.95;;;3.70;;
52786;SDS011;38661;53.152;5.846;2023-01-06T08:13:55;13.88;;;2.60;;
52786;SDS011;38661;53.152;5.846;2023-01-06T08:16:21;14.13;;;2.42;;
52786;SDS011;38661;53.152;5.846;2023-01-06T08:18:46;14.07;;;2.00;;
52786;SDS011;38661;53.152;5.846;2023-01-06T08:21:12;12.65;;;3.38;;
52786;SDS011;38661;53.152;5.846;2023-01-06T08:23:38;16.13;;;2.58;;
52786;SDS011;38661;53.152;5.846;2023-01-06T08:26:04;13.85;;;2.83;;
52786;SDS011;38661;53.152;5.846;2023-01-06T08:28:35;12.93;;;2.65;;
52786;SDS011;38661;53.152;5.846;2023-01-06T08:31:01;17.17;;;3.70;;
52786;SDS011;38661;53.152;5.846;2023-01-06T08:33:27;12.73;;;2.72;;
52786;SDS011;38661;53.152;5.846;2023-01-06T08:36:03;12.63;;;2.75;;
52786;SDS011;38661;53.152;5.846;2023-01-06T08:38:31;18.65;;;4.05;;
52786;SDS011;38661;53.152;5.846;2023-01-06T08:40:57;13.77;;;2.55;;
52786;SDS011;38661;53.152;5.846;2023-01-06T08:43:24;17.80;;;3.75;;
52786;SDS011;38661;53.152;5.846;2023-01-06T08:45:50;22.13;;;3.28;;
52786;SDS011;38661;53.152;5.846;2023-01-06T08:48:17;13.02;;;2.92;;
52786;SDS011;38661;53.152;5.846;2023-01-06T08:50:43;14.75;;;2.85;;
52786;SDS011;38661;53.152;5.846;2023-01-06T08:53:09;10.25;;;3.10;;
52786;SDS011;38661;53.152;5.846;2023-01-06T08:55:40;13.98;;;2.58;;
52786;SDS011;38661;53.152;5.846;2023-01-06T08:58:06;13.57;;;3.00;;
52786;SDS011;38661;53.152;5.846;2023-01-06T09:00:33;9.80;;;2.03;;
52786;SDS011;38661;53.152;5.846;2023-01-06T09:02:59;15.73;;;3.40;;
52786;SDS011;38661;53.152;5.846;2023-01-06T09:05:26;8.98;;;1.92;;
52786;SDS011;38661;53.152;5.846;2023-01-06T09:07:51;12.95;;;3.00;;
52786;SDS011;38661;53.152;5.846;2023-01-06T09:10:19;12.52;;;2.70;;
52786;SDS011;38661;53.152;5.846;2023-01-06T09:12:45;18.05;;;2.40;;
52786;SDS011;38661;53.152;5.846;2023-01-06T09:15:11;16.30;;;6.25;;
52786;SDS011;38661;53.152;5.846;2023-01-06T09:17:38;15.13;;;3.72;;
52786;SDS011;38661;53.152;5.846;2023-01-06T09:20:05;15.05;;;3.45;;
52786;SDS011;38661;53.152;5.846;2023-01-06T09:22:30;10.50;;;2.90;;
52786;SDS011;38661;53.152;5.846;2023-01-06T09:24:56;12.90;;;2.97;;
52786;SDS011;38661;53.152;5.846;2023-01-06T09:27:22;10.73;;;1.90;;
52786;SDS011;38661;53.152;5.846;2023-01-06T09:29:48;15.90;;;2.78;;
52786;SDS011;38661;53.152;5.846;2023-01-06T09:32:14;15.25;;;2.20;;
52786;SDS011;38661;53.152;5.846;2023-01-06T09:34:40;14.82;;;3.85;;
52786;SDS011;38661;53.152;5.846;2023-01-06T09:37:05;14.32;;;2.42;;
52786;SDS011;38661;53.152;5.846;2023-01-06T09:39:31;13.32;;;2.80;;
52786;SDS011;38661;53.152;5.846;2023-01-06T09:44:54;8.60;;;2.17;;
52786;SDS011;38661;53.152;5.846;2023-01-06T09:47:43;11.88;;;1.75;;
52786;SDS011;38661;53.152;5.846;2023-01-06T09:50:33;11.00;;;1.88;;
52786;SDS011;38661;53.152;5.846;2023-01-06T09:53:05;7.70;;;1.90;;
52786;SDS011;38661;53.152;5.846;2023-01-06T09:55:53;8.35;;;1.65;;
52786;SDS011;38661;53.152;5.846;2023-01-06T09:58:44;12.77;;;3.58;;
52786;SDS011;38661;53.152;5.846;2023-01-06T10:01:13;12.75;;;2.45;;
52786;SDS011;38661;53.152;5.846;2023-01-06T10:03:41;11.93;;;2.83;;
52786;SDS011;38661;53.152;5.846;2023-01-06T10:12:12;11.15;;;2.67;;
52786;SDS011;38661;53.152;5.846;2023-01-06T10:15:02;10.70;;;2.85;;
52786;SDS011;38661;53.152;5.846;2023-01-06T10:26:26;7.57;;;1.73;;
52786;SDS011;38661;53.152;5.846;2023-01-06T10:28:55;8.43;;;2.33;;
52786;SDS011;38661;53.152;5.846;2023-01-06T10:31:27;6.88;;;2.03;;
52786;SDS011;38661;53.152;5.846;2023-01-06T10:33:59;9.50;;;2.72;;
52786;SDS011;38661;53.152;5.846;2023-01-06T10:36:29;8.02;;;2.10;;
52786;SDS011;38661;53.152;5.846;2023-01-06T10:38:57;7.15;;;1.70;;
52786;SDS011;38661;53.152;5.846;2023-01-06T10:44:05;10.60;;;2.60;;
52786;SDS011;38661;53.152;5.846;2023-01-06T10:46:35;10.25;;;2.30;;
52786;SDS011;38661;53.152;5.846;2023-01-06T10:49:02;10.38;;;2.13;;
52786;SDS011;38661;53.152;5.846;2023-01-06T10:51:38;9.25;;;1.88;;
52786;SDS011;38661;53.152;5.846;2023-01-06T10:54:09;8.48;;;2.58;;
52786;SDS011;38661;53.152;5.846;2023-01-06T10:56:40;13.52;;;3.05;;
52786;SDS011;38661;53.152;5.846;2023-01-06T10:59:10;14.55;;;3.35;;
52786;SDS011;38661;53.152;5.846;2023-01-06T11:01:51;11.13;;;2.35;;
52786;SDS011;38661;53.152;5.846;2023-01-06T11:04:18;12.88;;;2.15;;
52786;SDS011;38661;53.152;5.846;2023-01-06T11:06:55;9.65;;;2.13;;
52786;SDS011;38661;53.152;5.846;2023-01-06T11:12:14;54.83;;;24.92;;
52786;SDS011;38661;53.152;5.846;2023-01-06T11:15:04;11.02;;;2.90;;
52786;SDS011;38661;53.152;5.846;2023-01-06T11:17:31;11.02;;;2.10;;
52786;SDS011;38661;53.152;5.846;2023-01-06T11:22:54;9.80;;;2.28;;
52786;SDS011;38661;53.152;5.846;2023-01-06T11:25:48;8.73;;;1.83;;
52786;SDS011;38661;53.152;5.846;2023-01-06T11:28:26;11.98;;;3.13;;
52786;SDS011;38661;53.152;5.846;2023-01-06T11:30:57;12.73;;;2.65;;
52786;SDS011;38661;53.152;5.846;2023-01-06T11:33:25;9.60;;;2.75;;
52786;SDS011;38661;53.152;5.846;2023-01-06T11:35:52;14.90;;;2.70;;
52786;SDS011;38661;53.152;5.846;2023-01-06T11:38:20;14.27;;;3.28;;
52786;SDS011;38661;53.152;5.846;2023-01-06T11:40:47;11.32;;;2.42;;
52786;SDS011;38661;53.152;5.846;2023-01-06T11:43:16;17.35;;;2.83;;
52786;SDS011;38661;53.152;5.846;2023-01-06T11:45:54;8.93;;;2.55;;
52786;SDS011;38661;53.152;5.846;2023-01-06T11:51:13;8.30;;;3.50;;
52786;SDS011;38661;53.152;5.846;2023-01-06T11:53:53;15.30;;;3.17;;
52786;SDS011;38661;53.152;5.846;2023-01-06T11:56:21;8.85;;;2.70;;
52786;SDS011;38661;53.152;5.846;2023-01-06T11:59:07;8.57;;;2.78;;
52786;SDS011;38661;53.152;5.846;2023-01-06T12:01:41;14.43;;;2.78;;
52786;SDS011;38661;53.152;5.846;2023-01-06T12:07:02;14.85;;;3.15;;
52786;SDS011;38661;53.152;5.846;2023-01-06T12:09:39;12.73;;;2.00;;
52786;SDS011;38661;53.152;5.846;2023-01-06T12:12:09;14.85;;;2.92;;
52786;SDS011;38661;53.152;5.846;2023-01-06T12:14:39;13.93;;;3.38;;
52786;SDS011;38661;53.152;5.846;2023-01-06T12:17:07;12.70;;;2.53;;
52786;SDS011;38661;53.152;5.846;2023-01-06T12:19:58;16.60;;;3.72;;
52786;SDS011;38661;53.152;5.846;2023-01-06T12:22:50;14.50;;;3.00;;
52786;SDS011;38661;53.152;5.846;2023-01-06T12:25:30;12.00;;;2.58;;
52786;SDS011;38661;53.152;5.846;2023-01-06T12:30:52;17.63;;;6.88;;
52786;SDS011;38661;53.152;5.846;2023-01-06T12:36:28;12.65;;;3.95;;
52786;SDS011;38661;53.152;5.846;2023-01-06T12:47:50;12.20;;;3.70;;
52786;SDS011;38661;53.152;5.846;2023-01-06T12:52:49;19.23;;;4.55;;
52786;SDS011;38661;53.152;5.846;2023-01-06T12:55:43;11.57;;;2.92;;
52786;SDS011;38661;53.152;5.846;2023-01-06T12:58:19;15.93;;;4.72;;
52786;SDS011;38661;53.152;5.846;2023-01-06T13:09:33;15.13;;;4.68;;
52786;SDS011;38661;53.152;5.846;2023-01-06T13:15:28;13.68;;;4.43;;
52786;SDS011;38661;53.152;5.846;2023-01-06T13:18:02;17.73;;;7.22;;
52786;SDS011;38661;53.152;5.846;2023-01-06T13:25:55;9.55;;;3.15;;
52786;SDS011;38661;53.152;5.846;2023-01-06T13:34:31;18.65;;;5.45;;
52786;SDS011;38661;53.152;5.846;2023-01-06T13:37:22;16.88;;;3.78;;
52786;SDS011;38661;53.152;5.846;2023-01-06T13:39:56;11.35;;;3.85;;
52786;SDS011;38661;53.152;5.846;2023-01-06T13:42:35;16.95;;;3.97;;
52786;SDS011;38661;53.152;5.846;2023-01-06T13:45:06;13.65;;;3.28;;
52786;SDS011;38661;53.152;5.846;2023-01-06T13:47:51;10.65;;;2.20;;
52786;SDS011;38661;53.152;5.846;2023-01-06T13:50:18;16.08;;;3.25;;
52786;SDS011;38661;53.152;5.846;2023-01-06T13:52:45;9.02;;;2.38;;
52786;SDS011;38661;53.152;5.846;2023-01-06T13:57:43;13.35;;;2.80;;
52786;SDS011;38661;53.152;5.846;2023-01-06T14:05:05;12.40;;;2.42;;
52786;SDS011;38661;53.152;5.846;2023-01-06T14:07:37;14.13;;;2.80;;
52786;SDS011;38661;53.152;5.846;2023-01-06T14:10:06;8.60;;;3.25;;
52786;SDS011;38661;53.152;5.846;2023-01-06T14:12:52;12.85;;;4.35;;
52786;SDS011;38661;53.152;5.846;2023-01-06T14:15:39;17.23;;;4.97;;
52786;SDS011;38661;53.152;5.846;2023-01-06T14:18:41;10.10;;;2.85;;
52786;SDS011;38661;53.152;5.846;2023-01-06T14:21:18;15.02;;;3.28;;
52786;SDS011;38661;53.152;5.846;2023-01-06T14:23:53;13.38;;;3.78;;
52786;SDS011;38661;53.152;5.846;2023-01-06T14:26:21;26.77;;;13.18;;
52786;SDS011;38661;53.152;5.846;2023-01-06T14:32:03;19.70;;;5.07;;
52786;SDS011;38661;53.152;5.846;2023-01-06T14:34:33;25.98;;;11.20;;
52786;SDS011;38661;53.152;5.846;2023-01-06T14:37:00;31.60;;;11.45;;
52786;SDS011;38661;53.152;5.846;2023-01-06T14:39:28;53.15;;;22.50;;
52786;SDS011;38661;53.152;5.846;2023-01-06T14:41:58;47.70;;;23.85;;
52786;SDS011;38661;53.152;5.846;2023-01-06T14:46:59;36.17;;;23.70;;
52786;SDS011;38661;53.152;5.846;2023-01-06T14:49:41;22.30;;;6.82;;
52786;SDS011;38661;53.152;5.846;2023-01-06T14:52:18;16.83;;;6.03;;
52786;SDS011;38661;53.152;5.846;2023-01-06T14:54:47;16.38;;;5.10;;
52786;SDS011;38661;53.152;5.846;2023-01-06T15:00:03;15.18;;;4.78;;
52786;SDS011;38661;53.152;5.846;2023-01-06T15:02:45;15.00;;;7.18;;
52786;SDS011;38661;53.152;5.846;2023-01-06T15:05:20;30.60;;;13.15;;
52786;SDS011;38661;53.152;5.846;2023-01-06T15:08:02;24.90;;;8.67;;
52786;SDS011;38661;53.152;5.846;2023-01-06T15:18:47;27.10;;;11.75;;
52786;SDS011;38661;53.152;5.846;2023-01-06T15:21:20;23.15;;;5.60;;
52786;SDS011;38661;53.152;5.846;2023-01-06T15:23:47;29.38;;;13.32;;
52786;SDS011;38661;53.152;5.846;2023-01-06T15:26:25;21.48;;;6.93;;
52786;SDS011;38661;53.152;5.846;2023-01-06T15:29:00;16.27;;;5.22;;
52786;SDS011;38661;53.152;5.846;2023-01-06T15:31:33;13.23;;;4.00;;
52786;SDS011;38661;53.152;5.846;2023-01-06T15:34:20;22.65;;;5.35;;
52786;SDS011;38661;53.152;5.846;2023-01-06T15:37:03;27.23;;;11.80;;
52786;SDS011;38661;53.152;5.846;2023-01-06T15:39:35;22.80;;;9.48;;
52786;SDS011;38661;53.152;5.846;2023-01-06T15:42:03;19.92;;;10.05;;
52786;SDS011;38661;53.152;5.846;2023-01-06T15:44:34;18.45;;;5.72;;
52786;SDS011;38661;53.152;5.846;2023-01-06T15:49:47;13.10;;;4.68;;
52786;SDS011;38661;53.152;5.846;2023-01-06T15:52:29;19.42;;;7.72;;
52786;SDS011;38661;53.152;5.846;2023-01-06T15:57:30;44.35;;;24.33;;
52786;SDS011;38661;53.152;5.846;2023-01-06T16:00:22;19.48;;;7.78;;
52786;SDS011;38661;53.152;5.846;2023-01-06T16:02:48;18.85;;;7.35;;
52786;SDS011;38661;53.152;5.846;2023-01-06T16:08:04;14.02;;;4.85;;
52786;SDS011;38661;53.152;5.846;2023-01-06T16:10:38;21.85;;;7.22;;
52786;SDS011;38661;53.152;5.846;2023-01-06T16:13:13;17.38;;;3.97;;
52786;SDS011;38661;53.152;5.846;2023-01-06T16:18:29;18.50;;;4.40;;
52786;SDS011;38661;53.152;5.846;2023-01-06T16:20:57;20.50;;;5.32;;
52786;SDS011;38661;53.152;5.846;2023-01-06T16:23:33;16.48;;;4.40;;
52786;SDS011;38661;53.152;5.846;2023-01-06T16:26:05;15.10;;;5.03;;
52786;SDS011;38661;53.152;5.846;2023-01-06T16:28:41;19.50;;;5.55;;
52786;SDS011;38661;53.152;5.846;2023-01-06T16:31:13;15.57;;;6.10;;
52786;SDS011;38661;53.152;5.846;2023-01-06T16:33:52;24.02;;;6.07;;
52786;SDS011;38661;53.152;5.846;2023-01-06T16:36:19;16.02;;;5.43;;
52786;SDS011;38661;53.152;5.846;2023-01-06T16:38:45;21.20;;;5.80;;
52786;SDS011;38661;53.152;5.846;2023-01-06T16:41:15;24.23;;;7.25;;
52786;SDS011;38661;53.152;5.846;2023-01-06T16:43:42;15.45;;;5.70;;
52786;SDS011;38661;53.152;5.846;2023-01-06T16:46:14;13.63;;;3.75;;
52786;SDS011;38661;53.152;5.846;2023-01-06T16:48:52;18.48;;;5.00;;
52786;SDS011;38661;53.152;5.846;2023-01-06T16:51:19;15.93;;;5.47;;
52786;SDS011;38661;53.152;5.846;2023-01-06T16:53:46;31.98;;;19.42;;
52786;SDS011;38661;53.152;5.846;2023-01-06T16:56:18;14.98;;;4.68;;
52786;SDS011;38661;53.152;5.846;2023-01-06T16:58:46;18.65;;;4.15;;
52786;SDS011;38661;53.152;5.846;2023-01-06T17:01:17;14.02;;;4.57;;
52786;SDS011;38661;53.152;5.846;2023-01-06T17:03:53;56.53;;;28.88;;
52786;SDS011;38661;53.152;5.846;2023-01-06T17:06:20;54.40;;;23.80;;
52786;SDS011;38661;53.152;5.846;2023-01-06T17:08:49;24.58;;;11.52;;
52786;SDS011;38661;53.152;5.846;2023-01-06T17:11:19;24.20;;;10.35;;
52786;SDS011;38661;53.152;5.846;2023-01-06T17:16:21;33.03;;;19.02;;
52786;SDS011;38661;53.152;5.846;2023-01-06T17:18:57;17.13;;;8.45;;